sensor_id;sensor_type;location;lat;lon;timestamp;temperature;humidity
15615;DHT22;7907;51.368;6.730;2023-04-01T00:01:26;10.50;99.90
15615;DHT22;7907;51.368;6.730;2023-04-01T00:04:07;10.60;99.90
15615;DHT22;7907;51.368;6.730;2023-04-01T00:06:37;10.60;99.90
15615;DHT22;7907;51.368;6.730;2023-04-01T00:09:22;10.60;99.90
15615;DHT22;7907;51.368;6.730;2023-04-01T00:12:25;10.60;99.90
15615;DHT22;7907;51.368;6.730;2023-04-01T00:15:26;10.60;99.90
15615;DHT22;7907;51.368;6.730;2023-04-01T00:18:17;10.70;99.90
15615;DHT22;7907;51.368;6.730;2023-04-01T00:21:03;10.60;99.90
15615;DHT22;7907;51.368;6.730;2023-04-01T00:24:05;10.70;99.90
15615;DHT22;7907;51.368;6.730;2023-04-01T00:26:55;10.60;99.90
15615;DHT22;7907;51.368;6.730;2023-04-01T00:29:35;10.60;99.90
15615;DHT22;7907;51.368;6.730;2023-04-01T00:32:56;10.50;99.90
15615;DHT22;7907;51.368;6.730;2023-04-01T00:35:40;10.50;99.90
15615;DHT22;7907;51.368;6.730;2023-04-01T00:52:43;10.60;99.90
15615;DHT22;7907;51.368;6.730;2023-04-01T00:55:12;10.50;99.90
15615;DHT22;7907;51.368;6.730;2023-04-01T00:57:40;10.50;99.90
15615;DHT22;7907;51.368;6.730;2023-04-01T01:00:13;10.50;99.90
15615;DHT22;7907;51.368;6.730;2023-04-01T01:02:41;10.50;99.90
15615;DHT22;7907;51.368;6.730;2023-04-01T01:05:47;10.50;99.90
15615;DHT22;7907;51.368;6.730;2023-04-01T01:08:56;10.50;99.90
15615;DHT22;7907;51.368;6.730;2023-04-01T01:15:40;10.50;99.90
15615;DHT22;7907;51.368;6.730;2023-04-01T01:18:33;10.50;99.90
15615;DHT22;7907;51.368;6.730;2023-04-01T01:21:56;10.50;99.90
15615;DHT22;7907;51.368;6.730;2023-04-01T01:34:23;10.50;99.90
15615;DHT22;7907;51.368;6.730;2023-04-01T01:37:20;10.50;99.90
15615;DHT22;7907;51.368;6.730;2023-04-01T01:40:20;10.40;99.90
15615;DHT22;7907;51.368;6.730;2023-04-01T01:44:29;10.50;99.90
15615;DHT22;7907;51.368;6.730;2023-04-01T01:49:39;10.50;99.90
15615;DHT22;7907;51.368;6.730;2023-04-01T01:52:17;10.60;99.90
15615;DHT22;7907;51.368;6.730;2023-04-01T01:55:22;10.60;99.90
15615;DHT22;7907;51.368;6.730;2023-04-01T02:23:55;10.30;99.90
15615;DHT22;7907;51.368;6.730;2023-04-01T02:26:52;10.40;99.90
15615;DHT22;7907;51.368;6.730;2023-04-01T02:29:54;10.40;99.90
15615;DHT22;7907;51.368;6.730;2023-04-01T03:04:21;9.90;99.90
15615;DHT22;7907;51.368;6.730;2023-04-01T03:06:59;9.90;99.90
15615;DHT22;7907;51.368;6.730;2023-04-01T03:09:43;9.90;99.90
15615;DHT22;7907;51.368;6.730;2023-04-01T03:12:28;9.90;99.90
15615;DHT22;7907;51.368;6.730;2023-04-01T03:15:19;9.90;99.90
15615;DHT22;7907;51.368;6.730;2023-04-01T03:21:28;10.00;99.90
15615;DHT22;7907;51.368;6.730;2023-04-01T06:21:33;10.30;99.90
15615;DHT22;7907;51.368;6.730;2023-04-01T06:24:45;10.30;99.90
15615;DHT22;7907;51.368;6.730;2023-04-01T06:33:00;10.40;99.90
15615;DHT22;7907;51.368;6.730;2023-04-01T06:36:04;10.40;99.90
15615;DHT22;7907;51.368;6.730;2023-04-01T06:42:25;10.30;99.90
15615;DHT22;7907;51.368;6.730;2023-04-01T06:45:28;10.30;99.90
15615;DHT22;7907;51.368;6.730;2023-04-01T06:48:43;10.30;99.90
15615;DHT22;7907;51.368;6.730;2023-04-01T06:51:41;10.30;99.90
15615;DHT22;7907;51.368;6.730;2023-04-01T06:55:25;10.30;99.90
15615;DHT22;7907;51.368;6.730;2023-04-01T07:01:48;10.30;99.90
15615;DHT22;7907;51.368;6.730;2023-04-01T07:05:03;10.40;99.90
15615;DHT22;7907;51.368;6.730;2023-04-01T07:07:47;10.40;99.90
15615;DHT22;7907;51.368;6.730;2023-04-01T07:10:31;10.40;99.90
15615;DHT22;7907;51.368;6.730;2023-04-01T07:13:25;10.40;99.90
15615;DHT22;7907;51.368;6.730;2023-04-01T07:16:39;10.40;99.90
15615;DHT22;7907;51.368;6.730;2023-04-01T07:19:56;10.40;99.90
15615;DHT22;7907;51.368;6.730;2023-04-01T07:22:48;10.30;99.90
15615;DHT22;7907;51.368;6.730;2023-04-01T07:25:58;10.40;99.90
15615;DHT22;7907;51.368;6.730;2023-04-01T07:28:57;10.40;99.90
15615;DHT22;7907;51.368;6.730;2023-04-01T07:31:49;10.40;99.90
15615;DHT22;7907;51.368;6.730;2023-04-01T07:34:41;10.40;99.90
15615;DHT22;7907;51.368;6.730;2023-04-01T07:38:09;10.30;99.90
15615;DHT22;7907;51.368;6.730;2023-04-01T07:41:13;10.40;99.90
15615;DHT22;7907;51.368;6.730;2023-04-01T07:44:10;10.40;99.90
15615;DHT22;7907;51.368;6.730;2023-04-01T07:47:30;10.50;99.90
15615;DHT22;7907;51.368;6.730;2023-04-01T07:50:28;10.50;99.90
15615;DHT22;7907;51.368;6.730;2023-04-01T07:56:42;10.50;99.90
15615;DHT22;7907;51.368;6.730;2023-04-01T07:59:45;10.50;99.90
15615;DHT22;7907;51.368;6.730;2023-04-01T08:02:44;10.40;99.90
15615;DHT22;7907;51.368;6.730;2023-04-01T08:05:46;10.50;99.90
15615;DHT22;7907;51.368;6.730;2023-04-01T08:08:47;10.50;99.90
15615;DHT22;7907;51.368;6.730;2023-04-01T08:11:43;10.50;99.90
15615;DHT22;7907;51.368;6.730;2023-04-01T08:14:31;10.50;99.90
15615;DHT22;7907;51.368;6.730;2023-04-01T08:17:16;10.50;99.90
15615;DHT22;7907;51.368;6.730;2023-04-01T08:20:00;10.60;99.90
15615;DHT22;7907;51.368;6.730;2023-04-01T08:22:51;10.60;99.90
15615;DHT22;7907;51.368;6.730;2023-04-01T08:25:44;10.60;99.90
15615;DHT22;7907;51.368;6.730;2023-04-01T08:28:32;10.70;99.90
15615;DHT22;7907;51.368;6.730;2023-04-01T08:31:15;10.80;99.90
15615;DHT22;7907;51.368;6.730;2023-04-01T08:33:57;10.80;99.90
15615;DHT22;7907;51.368;6.730;2023-04-01T08:36:45;10.80;99.90
15615;DHT22;7907;51.368;6.730;2023-04-01T08:39:34;10.80;99.90
15615;DHT22;7907;51.368;6.730;2023-04-01T08:48:45;10.80;99.90
15615;DHT22;7907;51.368;6.730;2023-04-01T08:51:52;10.80;99.90
15615;DHT22;7907;51.368;6.730;2023-04-01T08:54:53;10.90;99.90
15615;DHT22;7907;51.368;6.730;2023-04-01T09:01:46;10.90;99.90
15615;DHT22;7907;51.368;6.730;2023-04-01T09:04:35;10.90;99.90
15615;DHT22;7907;51.368;6.730;2023-04-01T09:07:33;11.00;99.90
15615;DHT22;7907;51.368;6.730;2023-04-01T09:10:54;11.00;99.90
15615;DHT22;7907;51.368;6.730;2023-04-01T09:20:32;11.10;99.90
15615;DHT22;7907;51.368;6.730;2023-04-01T09:29:53;11.20;99.90
15615;DHT22;7907;51.368;6.730;2023-04-01T09:33:00;11.20;99.90
15615;DHT22;7907;51.368;6.730;2023-04-01T09:35:48;11.20;99.90
15615;DHT22;7907;51.368;6.730;2023-04-01T09:38:29;11.30;99.90
15615;DHT22;7907;51.368;6.730;2023-04-01T09:41:06;11.30;99.90
15615;DHT22;7907;51.368;6.730;2023-04-01T09:44:02;11.30;99.90
15615;DHT22;7907;51.368;6.730;2023-04-01T09:46:48;11.30;99.90
15615;DHT22;7907;51.368;6.730;2023-04-01T09:49:49;11.20;99.90
15615;DHT22;7907;51.368;6.730;2023-04-01T09:52:44;11.20;99.90
15615;DHT22;7907;51.368;6.730;2023-04-01T09:55:39;11.20;99.90
15615;DHT22;7907;51.368;6.730;2023-04-01T09:58:47;11.10;99.90
15615;DHT22;7907;51.368;6.730;2023-04-01T10:02:14;11.10;99.90
15615;DHT22;7907;51.368;6.730;2023-04-01T10:05:33;11.10;99.90
15615;DHT22;7907;51.368;6.730;2023-04-01T10:22:00;11.00;99.90
15615;DHT22;7907;51.368;6.730;2023-04-01T10:24:53;11.00;99.90
15615;DHT22;7907;51.368;6.730;2023-04-01T10:31:04;10.90;99.90
15615;DHT22;7907;51.368;6.730;2023-04-01T11:00:26;10.80;99.90
15615;DHT22;7907;51.368;6.730;2023-04-01T11:37:31;10.90;99.90
15615;DHT22;7907;51.368;6.730;2023-04-01T11:40:39;11.10;99.90
15615;DHT22;7907;51.368;6.730;2023-04-01T11:46:25;11.00;99.90
15615;DHT22;7907;51.368;6.730;2023-04-01T11:49:12;11.00;99.90
15615;DHT22;7907;51.368;6.730;2023-04-01T12:02:14;11.00;99.90
15615;DHT22;7907;51.368;6.730;2023-04-01T12:05:12;10.90;99.90
15615;DHT22;7907;51.368;6.730;2023-04-01T12:08:20;10.90;99.90
15615;DHT22;7907;51.368;6.730;2023-04-01T12:14:43;11.00;99.90
15615;DHT22;7907;51.368;6.730;2023-04-01T12:21:09;11.20;99.90
15615;DHT22;7907;51.368;6.730;2023-04-01T12:24:38;11.30;99.90
15615;DHT22;7907;51.368;6.730;2023-04-01T12:27:35;11.30;99.90
15615;DHT22;7907;51.368;6.730;2023-04-01T12:40:44;11.60;99.90
15615;DHT22;7907;51.368;6.730;2023-04-01T12:56:39;11.90;99.90
15615;DHT22;7907;51.368;6.730;2023-04-01T13:09:33;11.70;99.90
15615;DHT22;7907;51.368;6.730;2023-04-01T13:12:40;11.60;99.90
15615;DHT22;7907;51.368;6.730;2023-04-01T13:15:25;11.50;99.90
15615;DHT22;7907;51.368;6.730;2023-04-01T13:18:22;11.40;99.90
15615;DHT22;7907;51.368;6.730;2023-04-01T13:21:15;11.30;99.90
15615;DHT22;7907;51.368;6.730;2023-04-01T13:29:20;11.10;99.90
15615;DHT22;7907;51.368;6.730;2023-04-01T13:32:13;11.00;99.90
15615;DHT22;7907;51.368;6.730;2023-04-01T13:34:59;11.00;99.90
15615;DHT22;7907;51.368;6.730;2023-04-01T13:41:28;10.90;99.90
15615;DHT22;7907;51.368;6.730;2023-04-01T13:44:09;11.00;99.90
15615;DHT22;7907;51.368;6.730;2023-04-01T13:50:33;11.00;99.90
15615;DHT22;7907;51.368;6.730;2023-04-01T14:00:22;11.00;99.90
15615;DHT22;7907;51.368;6.730;2023-04-01T14:21:58;11.00;99.90
15615;DHT22;7907;51.368;6.730;2023-04-01T14:28:15;11.00;99.90
15615;DHT22;7907;51.368;6.730;2023-04-01T14:34:59;11.10;99.90
15615;DHT22;7907;51.368;6.730;2023-04-01T14:44:37;11.10;99.90
15615;DHT22;7907;51.368;6.730;2023-04-01T14:47:49;11.10;99.90
15615;DHT22;7907;51.368;6.730;2023-04-01T14:50:26;11.10;99.90
15615;DHT22;7907;51.368;6.730;2023-04-01T14:53:16;11.10;99.90
15615;DHT22;7907;51.368;6.730;2023-04-01T14:56:03;11.00;99.90
15615;DHT22;7907;51.368;6.730;2023-04-01T15:12:35;11.00;99.90
15615;DHT22;7907;51.368;6.730;2023-04-01T15:15:54;11.00;99.90
15615;DHT22;7907;51.368;6.730;2023-04-01T15:18:53;11.00;99.90
15615;DHT22;7907;51.368;6.730;2023-04-01T15:25:16;11.00;99.90
15615;DHT22;7907;51.368;6.730;2023-04-01T15:35:01;10.90;99.90
15615;DHT22;7907;51.368;6.730;2023-04-01T15:37:54;10.90;99.90
15615;DHT22;7907;51.368;6.730;2023-04-01T15:40:45;10.90;99.90
15615;DHT22;7907;51.368;6.730;2023-04-01T15:43:40;10.80;99.90
15615;DHT22;7907;51.368;6.730;2023-04-01T16:20:53;10.90;99.90
15615;DHT22;7907;51.368;6.730;2023-04-01T16:24:22;10.90;99.90
15615;DHT22;7907;51.368;6.730;2023-04-01T16:30:42;11.00;99.90
15615;DHT22;7907;51.368;6.730;2023-04-01T16:33:48;11.00;99.90
15615;DHT22;7907;51.368;6.730;2023-04-01T16:45:54;11.20;99.90
15615;DHT22;7907;51.368;6.730;2023-04-01T16:48:44;11.20;99.90
15615;DHT22;7907;51.368;6.730;2023-04-01T16:51:18;11.20;99.90
15615;DHT22;7907;51.368;6.730;2023-04-01T16:54:27;11.20;99.90
15615;DHT22;7907;51.368;6.730;2023-04-01T16:57:10;11.30;99.90
15615;DHT22;7907;51.368;6.730;2023-04-01T17:00:03;11.30;99.90
15615;DHT22;7907;51.368;6.730;2023-04-01T17:02:46;11.30;99.90
15615;DHT22;7907;51.368;6.730;2023-04-01T17:05:42;11.20;99.90
15615;DHT22;7907;51.368;6.730;2023-04-01T17:08:37;11.20;99.90
15615;DHT22;7907;51.368;6.730;2023-04-01T17:11:19;11.20;99.90
15615;DHT22;7907;51.368;6.730;2023-04-01T17:14:02;11.20;99.90
15615;DHT22;7907;51.368;6.730;2023-04-01T17:17:08;11.20;99.90
15615;DHT22;7907;51.368;6.730;2023-04-01T17:19:49;11.20;99.90
15615;DHT22;7907;51.368;6.730;2023-04-01T17:22:49;11.20;99.90
15615;DHT22;7907;51.368;6.730;2023-04-01T17:28:41;11.10;99.90
15615;DHT22;7907;51.368;6.730;2023-04-01T17:32:15;11.10;99.90
15615;DHT22;7907;51.368;6.730;2023-04-01T17:42:40;11.10;99.90
15615;DHT22;7907;51.368;6.730;2023-04-01T17:45:55;11.10;99.90
15615;DHT22;7907;51.368;6.730;2023-04-01T17:48:43;11.10;99.90
15615;DHT22;7907;51.368;6.730;2023-04-01T18:55:51;10.80;99.90
15615;DHT22;7907;51.368;6.730;2023-04-01T19:02:31;10.70;99.90
15615;DHT22;7907;51.368;6.730;2023-04-01T19:05:20;10.60;99.90
15615;DHT22;7907;51.368;6.730;2023-04-01T19:08:30;10.60;99.90
15615;DHT22;7907;51.368;6.730;2023-04-01T21:36:27;10.40;99.90
15615;DHT22;7907;51.368;6.730;2023-04-01T21:42:44;10.40;99.90
15615;DHT22;7907;51.368;6.730;2023-04-01T21:59:43;10.30;99.90
15615;DHT22;7907;51.368;6.730;2023-04-01T22:03:07;10.20;99.90
15615;DHT22;7907;51.368;6.730;2023-04-01T22:05:52;10.20;99.90
15615;DHT22;7907;51.368;6.730;2023-04-01T22:11:54;10.10;99.90
15615;DHT22;7907;51.368;6.730;2023-04-01T22:14:54;10.10;99.90
15615;DHT22;7907;51.368;6.730;2023-04-01T22:17:44;10.00;99.90
15615;DHT22;7907;51.368;6.730;2023-04-01T22:20:27;10.00;99.90
15615;DHT22;7907;51.368;6.730;2023-04-01T22:23:20;9.90;99.90
15615;DHT22;7907;51.368;6.730;2023-04-01T22:25:55;9.90;99.90
15615;DHT22;7907;51.368;6.730;2023-04-01T22:28:45;9.80;99.90
15615;DHT22;7907;51.368;6.730;2023-04-01T22:31:40;9.80;99.90
15615;DHT22;7907;51.368;6.730;2023-04-01T22:34:18;9.80;99.90
15615;DHT22;7907;51.368;6.730;2023-04-01T22:37:00;9.80;99.90
15615;DHT22;7907;51.368;6.730;2023-04-01T22:39:59;9.80;99.90
15615;DHT22;7907;51.368;6.730;2023-04-01T22:42:56;9.80;99.90
15615;DHT22;7907;51.368;6.730;2023-04-01T22:49:03;9.80;99.90
15615;DHT22;7907;51.368;6.730;2023-04-01T22:51:43;9.70;99.90
15615;DHT22;7907;51.368;6.730;2023-04-01T22:54:21;9.70;99.90
15615;DHT22;7907;51.368;6.730;2023-04-01T22:57:28;9.60;99.90
15615;DHT22;7907;51.368;6.730;2023-04-01T23:00:05;9.60;99.90
15615;DHT22;7907;51.368;6.730;2023-04-01T23:02:39;9.50;99.90
15615;DHT22;7907;51.368;6.730;2023-04-01T23:05:22;9.50;99.90
15615;DHT22;7907;51.368;6.730;2023-04-01T23:08:24;9.50;99.90
15615;DHT22;7907;51.368;6.730;2023-04-01T23:10:55;9.40;99.90
15615;DHT22;7907;51.368;6.730;2023-04-01T23:13:31;9.40;99.90
15615;DHT22;7907;51.368;6.730;2023-04-01T23:22:29;9.30;99.90
15615;DHT22;7907;51.368;6.730;2023-04-01T23:25:12;9.20;99.90
15615;DHT22;7907;51.368;6.730;2023-04-01T23:28:21;9.20;99.90
15615;DHT22;7907;51.368;6.730;2023-04-01T23:30:52;9.10;99.90
15615;DHT22;7907;51.368;6.730;2023-04-01T23:33:28;9.10;99.90
15615;DHT22;7907;51.368;6.730;2023-04-01T23:36:10;9.10;99.90
15615;DHT22;7907;51.368;6.730;2023-04-01T23:41:56;9.00;99.90
15615;DHT22;7907;51.368;6.730;2023-04-01T23:44:34;9.00;99.90
15615;DHT22;7907;51.368;6.730;2023-04-01T23:47:03;9.00;99.90
15615;DHT22;7907;51.368;6.730;2023-04-01T23:49:39;9.00;99.90
15615;DHT22;7907;51.368;6.730;2023-04-01T23:52:13;9.00;99.90
15615;DHT22;7907;51.368;6.730;2023-04-01T23:54:47;9.00;99.90
15615;DHT22;7907;51.368;6.730;2023-04-01T23:57:21;9.00;99.90
